createdAt,value
2019-02-16T00:00:37.207Z,64.20
2019-02-16T00:01:37.075Z,64.01
2019-02-16T00:02:36.947Z,64.01
2019-02-16T00:03:36.811Z,64.11
2019-02-16T00:04:36.681Z,64.96
2019-02-16T00:05:36.548Z,65.06
2019-02-16T00:06:36.420Z,66.09
2019-02-16T00:07:36.285Z,66.19
2019-02-16T00:08:36.155Z,66.19
2019-02-16T00:09:36.021Z,64.87
2019-02-16T00:10:35.898Z,65.06
2019-02-16T00:11:35.763Z,64.68
2019-02-16T00:12:35.627Z,65.81
2019-02-16T00:13:35.494Z,66.86
2019-02-16T00:14:35.429Z,65.81
2019-02-16T00:15:35.231Z,64.96
2019-02-16T00:16:35.101Z,63.35
2019-02-16T00:17:34.970Z,63.64
2019-02-16T00:18:34.842Z,64.11
2019-02-16T00:19:34.713Z,64.87
2019-02-16T00:20:34.575Z,66.95
2019-02-16T00:21:34.441Z,67.05
2019-02-16T00:22:34.321Z,66.09
2019-02-16T00:23:34.179Z,66.28
2019-02-16T00:24:34.049Z,64.11
2019-02-16T00:25:33.917Z,64.30
2019-02-16T00:26:33.785Z,63.73
2019-02-16T00:27:33.658Z,64.77
2019-02-16T00:28:33.523Z,63.64
2019-02-16T00:29:33.391Z,63.35
2019-02-16T00:30:33.265Z,63.92
2019-02-16T00:31:33.127Z,64.96
2019-02-16T00:32:32.995Z,65.25
2019-02-16T00:33:32.869Z,64.39
2019-02-16T00:34:32.733Z,63.45
2019-02-16T00:35:32.598Z,64.77
2019-02-16T00:36:32.474Z,66.19
2019-02-16T00:37:32.336Z,66.38
2019-02-16T00:38:32.204Z,66.19
2019-02-16T00:39:32.077Z,66.09
2019-02-16T00:40:31.943Z,65.25
2019-02-16T00:41:31.809Z,65.44
2019-02-16T00:42:31.679Z,65.25
2019-02-16T00:43:31.546Z,65.25
2019-02-16T00:44:31.413Z,66.09
2019-02-16T00:45:31.280Z,65.34
2019-02-16T00:46:31.150Z,64.20
2019-02-16T00:47:31.018Z,64.77
2019-02-16T00:48:30.885Z,66.09
2019-02-16T00:49:30.754Z,66.00
2019-02-16T00:50:30.622Z,65.53
2019-02-16T00:51:30.489Z,65.44
2019-02-16T00:52:30.357Z,66.19
2019-02-16T00:53:30.226Z,66.28
2019-02-16T00:54:30.098Z,66.82
2019-02-16T00:55:29.962Z,67.39
2019-02-16T00:56:29.831Z,67.01
2019-02-16T00:57:29.701Z,66.95
2019-02-16T00:58:29.566Z,66.92
2019-02-16T00:59:29.437Z,65.88
2019-02-16T01:00:29.303Z,65.63
2019-02-16T01:01:29.170Z,66.95
2019-02-16T01:02:29.038Z,67.58
2019-02-16T01:03:28.912Z,68.15
2019-02-16T01:04:28.774Z,67.68
2019-02-16T01:05:28.647Z,67.20
2019-02-16T01:06:28.512Z,65.78
2019-02-16T01:07:28.378Z,65.97
2019-02-16T01:08:28.248Z,66.92
2019-02-16T01:09:28.115Z,65.88
2019-02-16T01:10:27.987Z,66.06
2019-02-16T01:11:27.853Z,66.73
2019-02-16T01:12:27.722Z,67.01
2019-02-16T01:13:27.590Z,67.11
2019-02-16T01:14:27.456Z,66.73
2019-02-16T01:15:27.324Z,66.25
2019-02-16T01:16:27.193Z,66.25
2019-02-16T01:17:27.059Z,65.44
2019-02-16T01:18:26.929Z,65.88
2019-02-16T01:19:26.800Z,66.16
2019-02-16T01:20:26.664Z,66.44
2019-02-16T01:21:26.532Z,66.44
2019-02-16T01:22:26.400Z,66.25
2019-02-16T01:23:26.266Z,66.35
2019-02-16T01:24:26.135Z,65.50
2019-02-16T01:25:26.003Z,65.21
2019-02-16T01:26:25.877Z,65.15
2019-02-16T01:27:25.740Z,65.12
2019-02-16T01:28:25.611Z,64.77
2019-02-16T01:29:25.476Z,65.34
2019-02-16T01:30:25.349Z,65.34
2019-02-16T01:31:25.210Z,65.59
2019-02-16T01:32:25.084Z,65.81
2019-02-16T01:33:24.950Z,66.06
2019-02-16T01:34:24.821Z,66.35
2019-02-16T01:35:24.682Z,66.44
2019-02-16T01:36:24.550Z,66.25
2019-02-16T01:37:24.418Z,67.30
2019-02-16T01:38:24.286Z,66.82
2019-02-16T01:39:24.157Z,67.01
2019-02-16T01:40:24.023Z,65.59
2019-02-16T01:41:23.893Z,64.93
2019-02-16T01:42:23.765Z,64.20
2019-02-16T01:43:23.631Z,64.39
2019-02-16T01:44:23.495Z,64.20
2019-02-16T01:45:23.363Z,65.34
2019-02-16T01:46:23.231Z,66.76
2019-02-16T01:47:23.107Z,66.95
2019-02-16T01:48:22.965Z,67.14
2019-02-16T01:49:22.838Z,67.14
2019-02-16T01:50:22.704Z,65.15
2019-02-16T01:51:31.450Z,66.47
2019-02-16T01:52:22.441Z,66.38
2019-02-16T01:53:22.324Z,66.19
2019-02-16T01:54:22.176Z,66.28
2019-02-16T01:55:22.043Z,66.16
2019-02-16T01:56:21.910Z,65.88
2019-02-16T01:57:21.777Z,66.44
2019-02-16T01:58:21.648Z,66.63
2019-02-16T01:59:21.514Z,66.92
2019-02-16T02:00:21.381Z,67.96
2019-02-16T02:01:21.250Z,68.71
2019-02-16T02:02:21.118Z,69.38
2019-02-16T02:03:20.985Z,68.62
2019-02-16T02:04:20.854Z,68.52
2019-02-16T02:05:20.722Z,68.43
2019-02-16T02:06:20.589Z,67.11
2019-02-16T02:07:20.456Z,67.39
2019-02-16T02:08:20.326Z,67.11
2019-02-16T02:09:20.192Z,66.73
2019-02-16T02:10:20.061Z,66.35
2019-02-16T02:11:19.928Z,65.02
2019-02-16T02:12:19.797Z,65.40
2019-02-16T02:13:19.667Z,64.83
2019-02-16T02:14:19.532Z,63.51
2019-02-16T02:15:19.403Z,63.42
2019-02-16T02:16:19.268Z,64.83
2019-02-16T02:17:19.139Z,64.64
2019-02-16T02:18:19.005Z,65.12
2019-02-16T02:19:18.872Z,65.02
2019-02-16T02:20:18.738Z,64.55
2019-02-16T02:21:18.607Z,64.83
2019-02-16T02:22:18.481Z,64.83
2019-02-16T02:23:18.343Z,64.74
2019-02-16T02:24:18.211Z,65.21
2019-02-16T02:25:18.082Z,65.69
2019-02-16T02:26:17.953Z,66.25
2019-02-16T02:27:17.822Z,65.02
2019-02-16T02:28:17.683Z,64.07
2019-02-16T02:29:17.552Z,63.32
2019-02-16T02:30:17.494Z,63.23
2019-02-16T02:31:17.291Z,64.26
2019-02-16T02:32:17.157Z,64.83
2019-02-16T02:33:17.027Z,64.74
2019-02-16T02:34:16.892Z,64.93
2019-02-16T02:35:16.761Z,64.93
2019-02-16T02:36:16.629Z,65.21
2019-02-16T02:37:16.498Z,65.21
2019-02-16T02:38:16.366Z,66.73
2019-02-16T02:39:16.231Z,68.62
2019-02-16T02:40:16.100Z,67.39
2019-02-16T02:41:15.968Z,67.01
2019-02-16T02:42:15.835Z,65.88
2019-02-16T02:43:15.704Z,65.69
2019-02-16T02:44:15.578Z,66.06
2019-02-16T02:45:15.438Z,66.35
2019-02-16T02:46:15.306Z,65.97
2019-02-16T02:47:15.174Z,65.31
2019-02-16T02:48:15.041Z,66.35
2019-02-16T02:49:14.908Z,65.78
2019-02-16T02:50:14.778Z,65.12
2019-02-16T02:51:14.645Z,64.45
2019-02-16T02:52:14.513Z,64.93
2019-02-16T02:53:14.380Z,64.17
2019-02-16T02:54:14.249Z,63.89
2019-02-16T02:55:14.117Z,63.89
2019-02-16T02:56:13.984Z,64.93
2019-02-16T02:57:13.851Z,64.83
2019-02-16T02:58:13.722Z,63.98
2019-02-16T02:59:13.588Z,61.90
2019-02-16T03:00:13.455Z,60.67
2019-02-16T03:01:13.321Z,60.38
2019-02-16T03:02:13.192Z,60.67
2019-02-16T03:03:13.057Z,60.77
2019-02-16T03:04:12.927Z,62.37
2019-02-16T03:05:12.796Z,64.07
2019-02-16T03:06:12.664Z,65.12
2019-02-16T03:07:12.529Z,64.83
2019-02-16T03:08:12.400Z,64.93
2019-02-16T03:09:12.269Z,64.64
2019-02-16T03:10:12.132Z,64.64
2019-02-16T03:11:11.999Z,65.59
2019-02-16T03:12:11.869Z,65.50
2019-02-16T03:13:11.736Z,65.12
2019-02-16T03:14:11.602Z,64.83
2019-02-16T03:15:11.470Z,64.93
2019-02-16T03:16:11.339Z,64.83
2019-02-16T03:17:11.209Z,64.64
2019-02-16T03:18:11.073Z,64.83
2019-02-16T03:19:10.945Z,66.16
2019-02-16T03:20:10.810Z,65.59
2019-02-16T03:21:10.675Z,65.40
2019-02-16T03:22:10.548Z,65.21
2019-02-16T03:23:10.417Z,65.21
2019-02-16T03:24:10.288Z,65.31
2019-02-16T03:25:10.147Z,65.21
2019-02-16T03:26:10.015Z,65.97
2019-02-16T03:27:09.882Z,65.78
2019-02-16T03:28:09.755Z,65.88
2019-02-16T03:29:09.626Z,65.97
2019-02-16T03:30:09.511Z,65.02
2019-02-16T03:31:09.354Z,64.07
2019-02-16T03:32:09.231Z,63.23
2019-02-16T03:33:09.095Z,63.04
2019-02-16T03:34:08.959Z,62.75
2019-02-16T03:35:08.824Z,62.94
2019-02-16T03:36:08.691Z,63.23
2019-02-16T03:37:08.562Z,63.79
2019-02-16T03:38:08.431Z,63.89
2019-02-16T03:39:08.293Z,64.45
2019-02-16T03:40:08.162Z,65.21
2019-02-16T03:41:08.031Z,65.69
2019-02-16T03:42:07.898Z,64.17
2019-02-16T03:43:07.765Z,64.45
2019-02-16T03:44:07.633Z,64.93
2019-02-16T03:45:07.498Z,64.93
2019-02-16T03:46:07.369Z,64.45
2019-02-16T03:47:07.239Z,64.45
2019-02-16T03:48:07.104Z,63.32
2019-02-16T03:49:06.969Z,63.79
2019-02-16T03:50:06.838Z,63.89
2019-02-16T03:51:06.706Z,64.07
2019-02-16T03:52:13.775Z,63.70
2019-02-16T03:53:06.441Z,63.89
2019-02-16T03:54:06.309Z,63.70
2019-02-16T03:55:06.181Z,63.89
2019-02-16T03:56:06.047Z,64.64
2019-02-16T03:57:05.917Z,65.31
2019-02-16T03:58:05.780Z,65.12
2019-02-16T03:59:05.646Z,65.50
2019-02-16T04:00:05.519Z,65.02
2019-02-16T04:01:05.385Z,64.93
2019-02-16T04:02:05.249Z,65.02
2019-02-16T04:03:05.117Z,64.26
2019-02-16T04:04:04.981Z,63.98
2019-02-16T04:05:04.854Z,63.89
2019-02-16T04:06:04.719Z,64.26
2019-02-16T04:07:04.584Z,63.70
2019-02-16T04:08:04.459Z,62.85
2019-02-16T04:09:04.322Z,62.56
2019-02-16T04:10:04.200Z,63.42
2019-02-16T04:11:04.057Z,63.32
2019-02-16T04:12:03.924Z,63.89
2019-02-16T04:13:03.791Z,64.07
2019-02-16T04:14:03.661Z,64.26
2019-02-16T04:15:03.524Z,65.02
2019-02-16T04:16:03.392Z,65.31
2019-02-16T04:17:03.270Z,65.97
2019-02-16T04:18:03.129Z,65.40
2019-02-16T04:19:02.998Z,66.06
2019-02-16T04:20:02.867Z,66.16
2019-02-16T04:21:02.732Z,65.50
2019-02-16T04:22:02.604Z,65.12
2019-02-16T04:23:02.473Z,64.83
2019-02-16T04:24:02.334Z,63.70
2019-02-16T04:25:02.209Z,63.98
2019-02-16T04:26:02.078Z,64.17
2019-02-16T04:27:01.940Z,64.26
2019-02-16T04:28:01.807Z,64.26
2019-02-16T04:29:01.676Z,64.74
2019-02-16T04:30:01.542Z,64.93
2019-02-16T04:31:01.409Z,63.98
2019-02-16T04:32:01.277Z,63.79
2019-02-16T04:33:01.144Z,64.61
2019-02-16T04:34:01.010Z,65.56
2019-02-16T04:35:00.877Z,65.47
2019-02-16T04:36:00.748Z,65.37
2019-02-16T04:37:00.615Z,66.06
2019-02-16T04:38:00.479Z,65.40
2019-02-16T04:39:00.347Z,65.21
2019-02-16T04:40:00.330Z,64.64
2019-02-16T04:41:00.086Z,65.02
2019-02-16T04:41:59.956Z,65.59
2019-02-16T04:42:59.833Z,65.21
2019-02-16T04:43:59.685Z,66.25
2019-02-16T04:44:59.553Z,66.25
2019-02-16T04:45:59.419Z,65.59
2019-02-16T04:46:59.290Z,66.06
2019-02-16T04:47:59.155Z,66.16
2019-02-16T04:48:59.025Z,66.06
2019-02-16T04:49:58.898Z,65.88
2019-02-16T04:50:58.757Z,65.31
2019-02-16T04:51:58.626Z,64.83
2019-02-16T04:52:58.492Z,63.98
2019-02-16T04:53:58.360Z,64.17
2019-02-16T04:54:58.233Z,64.55
2019-02-16T04:55:58.138Z,65.02
2019-02-16T04:56:57.964Z,64.55
2019-02-16T04:57:57.832Z,63.89
2019-02-16T04:58:57.696Z,63.70
2019-02-16T04:59:57.566Z,64.36
2019-02-16T05:00:57.436Z,63.79
2019-02-16T05:01:57.301Z,62.94
2019-02-16T05:02:57.167Z,63.23
2019-02-16T05:03:57.034Z,63.23
2019-02-16T05:04:56.918Z,64.26
2019-02-16T05:05:56.771Z,63.51
2019-02-16T05:06:56.644Z,63.89
2019-02-16T05:07:56.505Z,63.42
2019-02-16T05:08:56.376Z,62.56
2019-02-16T05:09:56.264Z,62.09
2019-02-16T05:10:56.107Z,62.85
2019-02-16T05:11:55.975Z,62.28
2019-02-16T05:12:55.898Z,62.47
2019-02-16T05:13:55.718Z,62.75
2019-02-16T05:14:55.578Z,62.94
2019-02-16T05:15:55.449Z,63.32
2019-02-16T05:16:55.312Z,63.98
2019-02-16T05:17:55.310Z,65.18
2019-02-16T05:18:55.085Z,65.47
2019-02-16T05:19:54.915Z,65.56
2019-02-16T05:20:54.788Z,64.61
2019-02-16T05:21:54.657Z,65.28
2019-02-16T05:22:54.517Z,65.18
2019-02-16T05:23:54.419Z,66.13
2019-02-16T05:24:54.261Z,65.47
2019-02-16T05:25:54.127Z,65.56
2019-02-16T05:26:53.993Z,65.56
2019-02-16T05:27:53.856Z,64.52
2019-02-16T05:28:53.721Z,63.57
2019-02-16T05:29:53.587Z,63.48
2019-02-16T05:30:53.455Z,64.99
2019-02-16T05:31:53.325Z,65.09
2019-02-16T05:32:53.195Z,65.37
2019-02-16T05:33:53.064Z,65.37
2019-02-16T05:34:52.924Z,65.75
2019-02-16T05:35:52.850Z,66.13
2019-02-16T05:36:52.680Z,66.03
2019-02-16T05:37:52.529Z,65.47
2019-02-16T05:38:52.401Z,65.47
2019-02-16T05:39:52.262Z,65.37
2019-02-16T05:40:52.187Z,65.47
2019-02-16T05:41:52.102Z,64.71
2019-02-16T05:42:51.865Z,65.37
2019-02-16T05:43:51.740Z,65.31
2019-02-16T05:44:51.600Z,66.03
2019-02-16T05:45:51.469Z,65.18
2019-02-16T05:46:51.335Z,65.94
2019-02-16T05:47:51.201Z,65.94
2019-02-16T05:48:51.074Z,66.41
2019-02-16T05:49:50.938Z,64.71
2019-02-16T05:50:50.803Z,63.67
2019-02-16T05:51:50.672Z,63.85
2019-02-16T05:52:54.383Z,63.67
2019-02-16T05:53:50.411Z,64.61
2019-02-16T05:54:50.276Z,65.18
2019-02-16T05:55:50.143Z,65.37
2019-02-16T05:56:50.082Z,64.83
2019-02-16T05:57:49.875Z,64.17
2019-02-16T05:58:49.744Z,64.83
2019-02-16T05:59:49.610Z,65.50
2019-02-16T06:00:49.493Z,65.47
2019-02-16T06:01:53.733Z,64.52
2019-02-16T06:02:49.214Z,63.39
2019-02-16T06:03:49.094Z,63.04
2019-02-16T06:04:48.949Z,63.32
2019-02-16T06:05:48.815Z,63.42
2019-02-16T06:06:48.682Z,63.98
2019-02-16T06:07:48.566Z,63.39
2019-02-16T06:08:48.418Z,62.28
2019-02-16T06:09:48.298Z,61.87
2019-02-16T06:10:48.153Z,62.75
2019-02-16T06:11:48.019Z,63.42
2019-02-16T06:12:48.110Z,63.29
2019-02-16T06:13:47.752Z,63.95
2019-02-16T06:14:47.621Z,63.70
2019-02-16T06:15:47.498Z,63.01
2019-02-16T06:16:47.360Z,61.68
2019-02-16T06:17:47.225Z,61.71
2019-02-16T06:18:47.090Z,61.24
2019-02-16T06:19:47.083Z,61.61
2019-02-16T06:20:46.826Z,62.37
2019-02-16T06:21:46.692Z,63.32
2019-02-16T06:22:46.559Z,63.70
2019-02-16T06:23:46.427Z,64.26
2019-02-16T06:24:46.303Z,64.26
2019-02-16T06:25:46.162Z,63.42
2019-02-16T06:26:46.032Z,61.99
2019-02-16T06:27:45.896Z,62.75
2019-02-16T06:28:45.763Z,63.04
2019-02-16T06:29:45.632Z,63.42
2019-02-16T06:30:45.498Z,62.94
2019-02-16T06:31:45.365Z,63.42
2019-02-16T06:32:45.233Z,62.85
2019-02-16T06:33:45.100Z,62.56
2019-02-16T06:34:44.966Z,62.28
2019-02-16T06:35:44.835Z,62.85
2019-02-16T06:36:44.703Z,64.07
2019-02-16T06:37:44.571Z,63.70
2019-02-16T06:38:44.438Z,64.17
2019-02-16T06:39:44.305Z,64.80
2019-02-16T06:40:44.198Z,65.37
2019-02-16T06:41:44.040Z,66.50
2019-02-16T06:42:43.907Z,66.69
2019-02-16T06:43:43.775Z,66.50
2019-02-16T06:44:43.644Z,66.03
2019-02-16T06:45:43.510Z,65.47
2019-02-16T06:46:43.377Z,64.23
2019-02-16T06:47:43.242Z,63.57
2019-02-16T06:48:43.111Z,64.14
2019-02-16T06:49:42.978Z,64.14
2019-02-16T06:50:42.850Z,63.23
2019-02-16T06:51:42.714Z,63.42
2019-02-16T06:52:42.581Z,63.89
2019-02-16T06:53:42.447Z,63.04
2019-02-16T06:54:42.317Z,62.94
2019-02-16T06:55:42.183Z,63.23
2019-02-16T06:56:42.054Z,63.32
2019-02-16T06:57:41.918Z,62.37
2019-02-16T06:58:41.824Z,61.43
2019-02-16T06:59:41.652Z,61.71
2019-02-16T07:00:41.519Z,63.13
2019-02-16T07:01:41.385Z,64.07
2019-02-16T07:02:41.251Z,64.36
2019-02-16T07:03:41.120Z,64.64
2019-02-16T07:04:40.988Z,64.07
2019-02-16T07:05:40.855Z,63.89
2019-02-16T07:06:40.747Z,65.02
2019-02-16T07:07:40.588Z,66.44
2019-02-16T07:08:40.459Z,66.35
2019-02-16T07:09:40.328Z,64.64
2019-02-16T07:10:40.199Z,64.80
2019-02-16T07:11:40.062Z,63.95
2019-02-16T07:12:39.927Z,63.48
2019-02-16T07:13:39.794Z,63.39
2019-02-16T07:14:39.663Z,63.85
2019-02-16T07:15:39.550Z,64.42
2019-02-16T07:16:39.396Z,65.66
2019-02-16T07:17:39.264Z,67.26
2019-02-16T07:18:39.129Z,67.74
2019-02-16T07:19:38.997Z,65.94
2019-02-16T07:20:38.868Z,64.83
2019-02-16T07:21:38.738Z,64.26
2019-02-16T07:22:38.601Z,64.45
2019-02-16T07:23:38.468Z,65.40
2019-02-16T07:24:38.340Z,63.98
2019-02-16T07:25:38.277Z,63.32
2019-02-16T07:26:38.069Z,63.32
2019-02-16T07:27:37.939Z,64.93
2019-02-16T07:28:37.813Z,64.93
2019-02-16T07:29:37.671Z,64.93
2019-02-16T07:30:37.539Z,64.83
2019-02-16T07:31:37.406Z,64.55
2019-02-16T07:32:37.275Z,63.32
2019-02-16T07:33:37.143Z,61.90
2019-02-16T07:34:37.018Z,62.09
2019-02-16T07:35:36.885Z,62.28
2019-02-16T07:36:36.748Z,61.52
2019-02-16T07:37:36.622Z,61.52
2019-02-16T07:38:36.482Z,62.28
2019-02-16T07:39:36.347Z,62.28
2019-02-16T07:40:36.241Z,61.71
2019-02-16T07:41:36.154Z,60.86
2019-02-16T07:42:35.950Z,60.00
2019-02-16T07:43:35.817Z,58.30
2019-02-16T07:44:35.687Z,58.30
2019-02-16T07:45:35.553Z,58.30
2019-02-16T07:46:35.418Z,58.49
2019-02-16T07:47:35.287Z,58.78
2019-02-16T07:48:35.162Z,58.30
2019-02-16T07:49:35.052Z,57.35
2019-02-16T07:50:34.891Z,57.07
2019-02-16T07:51:34.761Z,56.79
2019-02-16T07:52:34.631Z,56.79
2019-02-16T07:53:34.495Z,55.27
2019-02-16T07:54:34.368Z,54.14
2019-02-16T07:55:34.227Z,52.18
2019-02-16T07:56:34.096Z,51.51
2019-02-16T07:57:33.963Z,52.18
2019-02-16T07:58:33.830Z,50.57
2019-02-16T07:59:33.698Z,50.00
2019-02-16T08:00:33.567Z,48.49
2019-02-16T08:01:33.437Z,49.62
2019-02-16T08:02:33.305Z,48.20
2019-02-16T08:03:33.169Z,46.80
2019-02-16T08:04:33.038Z,45.57
2019-02-16T08:05:32.908Z,44.24
2019-02-16T08:06:32.773Z,43.01
2019-02-16T08:07:32.641Z,41.61
2019-02-16T08:08:32.507Z,40.76
2019-02-16T08:09:32.378Z,40.19
2019-02-16T08:10:32.264Z,39.90
2019-02-16T08:11:32.113Z,39.53
2019-02-16T08:12:31.982Z,40.00
2019-02-16T08:13:31.853Z,39.53
2019-02-16T08:14:31.725Z,39.62
2019-02-16T08:15:31.587Z,39.45
2019-02-16T08:16:31.456Z,39.83
2019-02-16T08:17:31.330Z,40.50
2019-02-16T08:18:31.196Z,40.69
2019-02-16T08:19:31.062Z,39.95
2019-02-16T08:20:30.937Z,39.95
2019-02-16T08:21:30.803Z,38.90
2019-02-16T08:22:30.669Z,37.48
2019-02-16T08:23:30.540Z,37.19
2019-02-16T08:24:30.419Z,37.78
2019-02-16T08:25:30.285Z,37.50
2019-02-16T08:26:30.154Z,36.83
2019-02-16T08:27:30.027Z,35.69
2019-02-16T08:28:29.897Z,34.75
2019-02-16T08:29:29.769Z,34.65
2019-02-16T08:30:29.637Z,35.33
2019-02-16T08:31:29.508Z,36.19
2019-02-16T08:32:29.379Z,37.06
2019-02-16T08:33:29.251Z,36.11
2019-02-16T08:34:29.120Z,34.21
2019-02-16T08:35:28.993Z,33.07
2019-02-16T08:36:28.866Z,31.45
2019-02-16T08:37:28.740Z,29.85
2019-02-16T08:38:28.610Z,29.75
2019-02-16T08:39:28.488Z,31.95
2019-02-16T08:40:28.359Z,34.61
2019-02-16T08:41:28.235Z,34.81
2019-02-16T08:42:28.104Z,35.86
2019-02-16T08:43:27.983Z,36.15
2019-02-16T08:44:27.854Z,34.89
2019-02-16T08:45:27.726Z,33.18
2019-02-16T08:46:27.598Z,32.51
2019-02-16T08:47:27.472Z,33.47
2019-02-16T08:48:27.348Z,34.89
2019-02-16T08:49:27.220Z,34.70
2019-02-16T08:50:27.099Z,34.03
2019-02-16T08:51:26.970Z,33.17
2019-02-16T08:52:26.841Z,32.32
2019-02-16T08:53:26.716Z,32.80
2019-02-16T08:54:26.593Z,34.15
2019-02-16T08:55:26.466Z,36.16
2019-02-16T08:56:26.346Z,34.92
2019-02-16T08:57:26.222Z,36.26
2019-02-16T08:58:26.104Z,35.97
2019-02-16T08:59:25.967Z,33.99
2019-02-16T09:00:25.842Z,34.85
2019-02-16T09:01:27.479Z,34.75
2019-02-16T09:02:25.587Z,33.91
2019-02-16T09:03:25.464Z,34.67
2019-02-16T09:04:25.340Z,34.01
2019-02-16T09:05:25.214Z,33.06
2019-02-16T09:06:25.091Z,32.29
2019-02-16T09:07:24.965Z,32.21
2019-02-16T09:08:24.856Z,32.40
2019-02-16T09:09:24.718Z,32.12
2019-02-16T09:10:24.593Z,32.71
2019-02-16T09:11:24.468Z,30.71
2019-02-16T09:12:24.347Z,30.04
2019-02-16T09:13:24.223Z,30.23
2019-02-16T09:14:24.099Z,29.77
2019-02-16T09:15:23.977Z,28.92
2019-02-16T09:16:23.853Z,28.62
2019-02-16T09:17:23.730Z,28.43
2019-02-16T09:18:23.608Z,28.24
2019-02-16T09:19:23.488Z,28.81
2019-02-16T09:20:23.364Z,28.89
2019-02-16T09:21:23.240Z,28.99
2019-02-16T09:22:23.116Z,29.93
2019-02-16T09:23:22.993Z,30.60
2019-02-16T09:24:22.870Z,28.88
2019-02-16T09:25:22.747Z,29.05
2019-02-16T09:26:22.628Z,28.86
2019-02-16T09:27:22.502Z,28.49
2019-02-16T09:28:22.379Z,28.10
2019-02-16T09:29:22.253Z,28.67
2019-02-16T09:30:22.130Z,28.88
2019-02-16T09:31:22.007Z,28.97
2019-02-16T09:32:21.884Z,27.84
2019-02-16T09:33:21.764Z,27.66
2019-02-16T09:34:21.638Z,27.67
2019-02-16T09:35:21.518Z,27.38
2019-02-16T09:36:21.391Z,28.14
2019-02-16T09:37:21.271Z,27.38
2019-02-16T09:38:21.144Z,27.75
2019-02-16T09:39:21.023Z,28.03
2019-02-16T09:40:20.898Z,28.89
2019-02-16T09:41:20.774Z,29.18
2019-02-16T09:42:20.650Z,28.89
2019-02-16T09:43:20.528Z,28.99
2019-02-16T09:44:20.410Z,29.00
2019-02-16T09:45:20.281Z,28.72
2019-02-16T09:46:20.164Z,27.38
2019-02-16T09:47:20.034Z,26.79
2019-02-16T09:48:19.912Z,26.13
2019-02-16T09:49:19.790Z,26.61
2019-02-16T09:50:19.667Z,26.61
2019-02-16T09:51:19.542Z,26.70
2019-02-16T09:52:19.458Z,27.27
2019-02-16T09:53:19.300Z,27.08
2019-02-16T09:54:19.173Z,27.08
2019-02-16T09:55:19.050Z,27.66
2019-02-16T09:56:18.929Z,27.47
2019-02-16T09:57:18.804Z,27.47
2019-02-16T09:58:18.681Z,27.75
2019-02-16T09:59:18.557Z,28.13
2019-02-16T10:00:18.433Z,28.91
2019-02-16T10:01:18.342Z,28.91
2019-02-16T10:02:18.185Z,28.72
2019-02-16T10:03:18.061Z,28.92
2019-02-16T10:04:17.941Z,28.62
2019-02-16T10:05:17.817Z,27.76
2019-02-16T10:06:17.693Z,27.86
2019-02-16T10:07:17.568Z,28.05
2019-02-16T10:08:17.444Z,28.14
2019-02-16T10:09:17.329Z,27.59
2019-02-16T10:10:17.197Z,27.87
2019-02-16T10:11:17.122Z,27.28
2019-02-16T10:12:16.953Z,27.30
2019-02-16T10:13:16.828Z,27.30
2019-02-16T10:14:16.705Z,27.68
2019-02-16T10:15:16.585Z,27.49
2019-02-16T10:16:16.460Z,27.39
2019-02-16T10:17:16.336Z,27.01
2019-02-16T10:18:16.222Z,26.73
2019-02-16T10:19:16.090Z,26.52
2019-02-16T10:20:15.967Z,25.95
2019-02-16T10:21:15.846Z,26.72
2019-02-16T10:22:15.719Z,26.81
2019-02-16T10:23:15.597Z,27.01
2019-02-16T10:24:17.920Z,27.49
2019-02-16T10:25:15.352Z,27.11
2019-02-16T10:26:15.226Z,27.39
2019-02-16T10:27:15.104Z,27.20
2019-02-16T10:28:14.981Z,27.59
2019-02-16T10:29:14.864Z,26.74
2019-02-16T10:30:14.736Z,25.96
2019-02-16T10:31:14.618Z,25.39
2019-02-16T10:32:14.496Z,25.49
2019-02-16T10:33:14.369Z,26.74
2019-02-16T10:34:14.247Z,27.90
2019-02-16T10:35:14.124Z,26.85
2019-02-16T10:36:14.002Z,25.51
2019-02-16T10:37:13.882Z,24.73
2019-02-16T10:38:13.756Z,25.02
2019-02-16T10:39:13.639Z,25.69
2019-02-16T10:40:13.513Z,25.98
2019-02-16T10:41:13.397Z,25.96
2019-02-16T10:42:13.269Z,26.07
2019-02-16T10:43:13.144Z,27.03
2019-02-16T10:44:13.030Z,27.61
2019-02-16T10:45:12.902Z,28.11
2019-02-16T10:46:12.778Z,27.62
2019-02-16T10:47:12.656Z,26.78
2019-02-16T10:48:12.537Z,25.35
2019-02-16T10:49:12.414Z,24.87
2019-02-16T10:50:12.290Z,23.62
2019-02-16T10:51:12.173Z,22.56
2019-02-16T10:52:12.055Z,23.41
2019-02-16T10:53:11.931Z,24.08
2019-02-16T10:54:11.805Z,24.27
2019-02-16T10:55:11.685Z,24.84
2019-02-16T10:56:11.568Z,25.80
2019-02-16T10:57:11.440Z,27.15
2019-02-16T10:58:11.320Z,26.67
2019-02-16T10:59:11.205Z,26.10
2019-02-16T11:00:11.076Z,27.05
2019-02-16T11:01:10.955Z,26.86
2019-02-16T11:02:10.840Z,26.29
2019-02-16T11:03:10.712Z,25.51
2019-02-16T11:04:10.592Z,25.52
2019-02-16T11:05:10.476Z,25.14
2019-02-16T11:06:10.351Z,24.95
2019-02-16T11:07:10.229Z,24.76
2019-02-16T11:08:10.114Z,24.76
2019-02-16T11:09:09.987Z,24.57
2019-02-16T11:10:09.864Z,24.57
2019-02-16T11:11:09.745Z,25.54
2019-02-16T11:12:09.623Z,25.44
2019-02-16T11:13:09.502Z,24.28
2019-02-16T11:14:09.422Z,23.82
2019-02-16T11:15:09.268Z,24.58
2019-02-16T11:16:09.139Z,24.58
2019-02-16T11:17:09.017Z,24.66
2019-02-16T11:18:08.899Z,25.52
2019-02-16T11:19:08.772Z,25.14
2019-02-16T11:20:08.657Z,24.95
2019-02-16T11:21:08.533Z,25.43
2019-02-16T11:22:08.408Z,25.52
2019-02-16T11:23:08.293Z,24.95
2019-02-16T11:24:08.167Z,25.23
2019-02-16T11:25:08.047Z,25.13
2019-02-16T11:26:07.928Z,24.55
2019-02-16T11:27:07.806Z,24.65
2019-02-16T11:28:07.684Z,25.51
2019-02-16T11:29:07.563Z,26.57
2019-02-16T11:30:07.440Z,26.57
2019-02-16T11:31:07.317Z,26.00
2019-02-16T11:32:07.199Z,25.99
2019-02-16T11:33:07.076Z,26.00
2019-02-16T11:34:07.032Z,26.00
2019-02-16T11:35:06.832Z,25.35
2019-02-16T11:36:06.713Z,25.73
2019-02-16T11:37:06.628Z,26.21
2019-02-16T11:38:06.466Z,26.01
2019-02-16T11:39:06.347Z,25.35
2019-02-16T11:40:06.230Z,24.96
2019-02-16T11:41:06.104Z,24.85
2019-02-16T11:42:05.983Z,25.04
2019-02-16T11:43:05.862Z,25.62
2019-02-16T11:44:05.740Z,25.62
2019-02-16T11:45:05.620Z,25.63
2019-02-16T11:46:05.506Z,27.26
2019-02-16T11:47:05.380Z,26.78
2019-02-16T11:48:05.256Z,26.60
2019-02-16T11:49:05.171Z,26.22
2019-02-16T11:50:05.016Z,25.46
2019-02-16T11:51:04.895Z,24.79
2019-02-16T11:52:04.774Z,24.98
2019-02-16T11:53:04.653Z,25.16
2019-02-16T11:54:04.540Z,25.55
2019-02-16T11:55:04.408Z,24.70
2019-02-16T11:56:04.292Z,24.89
2019-02-16T11:57:04.179Z,24.21
2019-02-16T11:58:04.049Z,24.49
2019-02-16T11:59:03.925Z,24.39
2019-02-16T12:00:03.818Z,24.39
2019-02-16T12:01:03.689Z,25.07
2019-02-16T12:02:03.572Z,24.88
2019-02-16T12:03:03.484Z,25.65
2019-02-16T12:04:03.322Z,24.21
2019-02-16T12:05:03.252Z,23.92
2019-02-16T12:06:03.084Z,23.23
2019-02-16T12:07:02.984Z,24.09
2019-02-16T12:08:02.848Z,23.80
2019-02-16T12:09:02.720Z,24.27
2019-02-16T12:10:02.601Z,24.46
2019-02-16T12:11:02.499Z,24.84
2019-02-16T12:12:02.380Z,24.76
2019-02-16T12:13:02.237Z,25.44
2019-02-16T12:14:02.112Z,25.15
2019-02-16T12:15:01.999Z,24.79
2019-02-16T12:16:01.872Z,23.62
2019-02-16T12:17:01.753Z,23.23
2019-02-16T12:18:01.628Z,23.33
2019-02-16T12:19:01.506Z,23.90
2019-02-16T12:20:01.387Z,24.38
2019-02-16T12:21:01.284Z,25.44
2019-02-16T12:22:01.148Z,24.87
2019-02-16T12:23:01.043Z,24.88
2019-02-16T12:24:00.901Z,26.03
2019-02-16T12:25:05.769Z,26.41
2019-02-16T12:26:00.658Z,26.31
2019-02-16T12:27:00.535Z,26.03
2019-02-16T12:28:00.419Z,25.65
2019-02-16T12:29:00.293Z,24.96
2019-02-16T12:30:00.312Z,24.68
2019-02-16T12:31:00.055Z,25.15
2019-02-16T12:31:59.929Z,25.52
2019-02-16T12:32:59.808Z,25.82
2019-02-16T12:33:59.688Z,25.73
2019-02-16T12:34:59.567Z,25.44
2019-02-16T12:35:59.445Z,25.15
2019-02-16T12:36:59.327Z,25.15
2019-02-16T12:37:59.203Z,24.58
2019-02-16T12:39:04.760Z,25.04
2019-02-16T12:39:58.966Z,24.85
2019-02-16T12:40:58.838Z,25.43
2019-02-16T12:41:58.720Z,25.54
2019-02-16T12:42:58.596Z,25.54
2019-02-16T12:43:58.473Z,24.87
2019-02-16T12:44:58.356Z,24.95
2019-02-16T12:45:58.231Z,25.63
2019-02-16T12:46:58.110Z,25.44
2019-02-16T12:47:57.989Z,25.35
2019-02-16T12:48:57.866Z,24.69
2019-02-16T12:49:57.745Z,24.70
2019-02-16T12:50:59.498Z,24.89